Latest Coastal Weather Observations for Gunn Point

IDD60701

Issued at 7:45 am CST Thursday 2 October 2014 (issued every 10 minutes, with the page automatically refreshed every 10 minutes)

About coastal observations | Map of coastal stations | Coastal observations for NT | Marine services | Other Formats
Station Details ID: 014023 Name: GUNN POINT Lat: -12.25 Lon: 131.04 Height: 25.0 m
Data from the previous 72 hours. | See also: Recent months for locations in Northern Territory
Date/Time
CST
Temp

°C
Wind Pressure Rain
since 9am
mm
Weather Cloud Vis
km
Sea
Height
m
Swell
Dir
 
Speed
knots
Gust
knots
hPa Trend Height
m
Period
s
Dir
02/07:30am 22.9 ENE 0 0 1013.4 - 0.0 - - - - - - -
02/07:00am 20.0 CALM 0 0 1013.1 - 0.0 - - - - - - -
02/06:30am 19.0 CALM 0 0 1012.5 - 0.0 - - - - - - -
02/06:00am 19.3 NE 1 2 1012.2 - 0.0 - - - - - - -
02/05:30am 18.9 CALM 0 0 1011.8 - 0.0 - - - - - - -
02/05:00am 19.3 CALM 0 0 1011.5 - 0.0 - - - - - - -
02/04:30am 19.4 CALM 0 0 1011.3 - 0.0 - - - - - - -
02/04:00am 19.2 CALM 0 0 1011.2 - 0.0 - - - - - - -
02/03:30am 19.3 CALM 0 0 1011.4 - 0.0 - - - - - - -
02/03:00am 19.6 CALM 0 0 1011.3 - 0.0 - - - - - - -
02/02:30am 20.0 CALM 0 2 1011.4 - 0.0 - - - - - - -
02/02:00am 20.4 CALM 0 0 1012.2 - 0.0 - - - - - - -
02/01:30am 21.0 E 0 0 1012.4 - 0.0 - - - - - - -
02/01:00am 21.8 E 1 3 1012.8 - 0.0 - - - - - - -
02/12:30am 22.4 CALM 0 1 1012.9 - 0.0 - - - - - - -
02/12:00am 23.1 N 0 0 1013.0 - 0.0 - - - - - - -
 
Date/Time
CST
Temp

°C
Wind Pressure Rain
since 9am
mm
Weather Cloud Vis
km
Sea
Height
m
Swell
Dir
 
Speed
knots
Gust
knots
hPa Trend Height
m
Period
s
Dir
01/11:30pm 23.2 CALM 0 0 1013.1 - 0.0 - - - - - - -
01/11:00pm 24.4 CALM 0 1 1013.1 - 0.0 - - - - - - -
01/10:30pm 25.8 N 2 3 1013.0 - 0.0 - - - - - - -
01/10:00pm 27.0 N 4 6 1012.7 - 0.0 - - - - - - -
01/09:30pm 27.4 NW 6 11 1012.3 - 0.0 - - - - - - -
01/09:00pm 27.3 N 6 11 1012.1 - 0.0 - - - - - - -
01/08:30pm 26.9 NE 4 8 1011.8 - 0.0 - - - - - - -
01/08:00pm 25.9 E 2 3 1011.3 - 0.0 - - - - - - -
01/07:30pm 26.7 E 2 4 1010.7 - 0.0 - - - - - - -
01/07:00pm 27.7 ENE 4 8 1010.1 - 0.0 - - - - - - -
01/06:30pm 28.5 NE 2 5 1009.7 - 0.0 - - - - - - -
01/06:00pm 29.3 NE 6 11 1009.4 - 0.0 - - - - - - -
01/05:30pm 29.9 NNE 7 14 1008.9 - 0.0 - - - - - - -
01/05:00pm 30.6 NNE 7 12 1008.8 - 0.0 - - - - - - -
01/04:30pm 31.5 NE 7 13 1008.9 - 0.0 - - - - - - -
01/04:00pm 31.6 NNE 7 13 1009.2 - 0.0 - - - - - - -
01/03:30pm 31.6 NE 8 14 1009.2 - 0.0 - - - - - - -
01/03:00pm 32.0 NE 10 18 1009.6 - 0.0 - - - - - - -
01/02:30pm 31.7 NE 10 17 1010.1 - 0.0 - - - - - - -
01/02:00pm 31.0 NNE 11 19 1010.6 - 0.0 - - - - - - -
01/01:30pm 31.3 NNE 11 17 1011.2 - 0.0 - - - - - - -
01/01:00pm 31.7 NE 9 16 1011.9 - 0.0 - - - - - - -
01/12:30pm 32.4 ENE 8 14 1012.4 - 0.0 - - - - - - -
01/12:00pm 32.3 E 8 15 1013.3 - 0.0 - - - - - - -
01/11:30am 31.0 ENE 6 11 1013.8 - 0.0 - - - - - - -
01/11:00am 31.6 ENE 6 11 1014.2 - 0.0 - - - - - - -
01/10:30am 31.1 E 7 13 1014.6 - 0.0 - - - - - - -
01/10:00am 30.8 E 5 9 1014.5 - 0.0 - - - - - - -
01/09:30am 29.6 ESE 4 8 1014.7 - 0.0 - - - - - - -
01/09:00am 27.4 SE 4 9 1014.5 - 0.2 - - - - - - -
01/08:30am 26.8 S 1 4 1014.2 - 0.2 - - - - - - -
01/08:00am 25.4 S 2 5 1014.0 - 0.2 - - - - - - -
01/07:30am 22.9 CALM 0 2 1013.6 - 0.2 - - - - - - -
01/07:00am 20.0 SSE 1 2 1013.1 - 0.2 - - - - - - -
01/06:30am 19.1 CALM 0 2 1012.7 - 0.2 - - - - - - -
01/06:00am 19.3 CALM 0 0 1012.3 - 0.2 - - - - - - -
01/05:30am 19.6 CALM 0 0 1012.0 - 0.2 - - - - - - -
01/05:00am 20.2 CALM 0 1 1012.0 - 0.2 - - - - - - -
01/04:30am 20.9 ENE 1 2 1011.7 - 0.2 - - - - - - -
01/04:00am 21.4 ENE 2 4 1011.9 - 0.2 - - - - - - -
01/03:30am 21.9 E 1 2 1012.0 - 0.2 - - - - - - -
01/03:00am 22.7 CALM 0 1 1012.2 - 0.2 - - - - - - -
01/02:30am 22.8 CALM 0 0 1012.3 - 0.2 - - - - - - -
01/02:00am 23.3 CALM 0 0 1012.5 - 0.2 - - - - - - -
01/01:30am 23.9 CALM 0 0 1012.8 - 0.2 - - - - - - -
01/01:00am 23.9 CALM 0 2 1012.8 - 0.2 - - - - - - -
01/12:30am 24.2 CALM 0 1 1012.9 - 0.2 - - - - - - -
01/12:00am 24.5 CALM 0 0 1013.1 - 0.2 - - - - - - -
 
Date/Time
CST
Temp

°C
Wind Pressure Rain
since 9am
mm
Weather Cloud Vis
km
Sea
Height
m
Swell
Dir
 
Speed
knots
Gust
knots
hPa Trend Height
m
Period
s
Dir
30/11:30pm 25.3 CALM 0 0 1013.2 - 0.2 - - - - - - -
30/11:00pm 25.9 W 1 2 1013.3 - 0.2 - - - - - - -
30/10:30pm 26.9 N 4 8 1013.2 - 0.0 - - - - - - -
30/10:00pm 27.0 N 3 5 1013.1 - 0.0 - - - - - - -
30/09:30pm 26.6 NNE 5 9 1012.7 - 0.0 - - - - - - -
30/09:00pm 26.3 NE 4 8 1012.2 - 0.0 - - - - - - -
30/08:30pm 25.5 CALM 0 2 1011.9 - 0.0 - - - - - - -
30/08:00pm 26.4 ENE 1 2 1011.4 - 0.0 - - - - - - -
30/07:30pm 27.1 NE 2 5 1010.7 - 0.0 - - - - - - -
30/07:00pm 27.5 NNE 3 7 1010.3 - 0.0 - - - - - - -
30/06:30pm 28.3 NNE 4 8 1009.9 - 0.0 - - - - - - -
30/06:00pm 29.8 NNE 5 10 1009.6 - 0.0 - - - - - - -
30/05:30pm 30.4 NE 7 14 1009.3 - 0.0 - - - - - - -
30/05:00pm 31.3 NE 8 14 1009.3 - 0.0 - - - - - - -
30/04:30pm 31.5 NNE 6 10 1009.4 - 0.0 - - - - - - -
30/04:00pm 31.5 NE 8 14 1009.7 - 0.0 - - - - - - -
30/03:30pm 31.6 NE 10 17 1010.0 - 0.0 - - - - - - -
30/03:00pm 31.3 NE 10 17 1010.4 - 0.0 - - - - - - -
30/02:30pm 31.9 ENE 9 14 1010.7 - 0.0 - - - - - - -
30/02:00pm 31.2 NNE 9 16 1011.1 - 0.0 - - - - - - -
30/01:30pm 30.5 NE 9 16 1011.6 - 0.0 - - - - - - -
30/01:00pm 32.1 NE 8 15 1012.0 - 0.0 - - - - - - -
30/12:30pm 31.0 NE 10 20 1012.5 - 0.0 - - - - - - -
30/12:00pm 31.5 NE 8 15 1013.0 - 0.0 - - - - - - -
30/11:30am 29.9 NE 8 15 1013.6 - 0.0 - - - - - - -
30/11:00am 29.2 NE 5 10 1014.0 - 0.0 - - - - - - -
30/10:30am 30.2 NNE 5 11 1014.1 - 0.0 - - - - - - -
30/10:00am 30.2 ENE 5 11 1014.4 - 0.0 - - - - - - -
30/09:30am 29.6 E 7 11 1014.7 - 0.0 - - - - - - -
30/09:00am 29.1 E 7 10 1014.8 - 0.0 - - - - - - -
30/08:30am 28.4 E 4 8 1014.6 - 0.0 - - - - - - -
30/08:00am 26.7 E 2 3 1014.2 - 0.0 - - - - - - -
30/07:30am 24.4 CALM 0 0 1014.1 - 0.0 - - - - - - -
30/07:00am 21.6 CALM 0 0 1013.9 - 0.0 - - - - - - -
30/06:30am 20.9 CALM 0 0 1013.6 - 0.0 - - - - - - -
30/06:00am 21.3 CALM 0 0 1013.3 - 0.0 - - - - - - -
30/05:30am 22.5 CALM 0 0 1013.0 - 0.0 - - - - - - -
30/05:00am 23.3 CALM 0 0 1012.8 - 0.0 - - - - - - -
30/04:30am 23.8 CALM 0 2 1012.5 - 0.0 - - - - - - -
30/04:00am 23.4 CALM 0 2 1012.5 - 0.0 - - - - - - -
30/03:30am 23.2 CALM 0 0 1012.3 - 0.0 - - - - - - -
30/03:00am 22.7 CALM 0 3 1012.2 - 0.0 - - - - - - -
30/02:30am 21.9 NNE 1 2 1012.1 - 0.0 - - - - - - -
30/02:00am 22.4 CALM 0 1 1012.2 - 0.0 - - - - - - -
30/01:30am 22.9 CALM 0 1 1012.4 - 0.0 - - - - - - -
30/01:00am 24.7 NNW 2 3 1012.4 - 0.0 - - - - - - -
30/12:30am 26.1 WNW 3 4 1012.5 - 0.0 - - - - - - -
30/12:00am 26.3 WNW 3 8 1012.6 - 0.0 - - - - - - -
 
Date/Time
CST
Temp

°C
Wind Pressure Rain
since 9am
mm
Weather Cloud Vis
km
Sea
Height
m
Swell
Dir
 
Speed
knots
Gust
knots
hPa Trend Height
m
Period
s
Dir
29/11:30pm 26.4 WNW 2 5 1012.8 - 0.0 - - - - - - -
29/11:00pm 26.3 NNW 2 6 1012.8 - 0.0 - - - - - - -
29/10:30pm 26.5 NW 2 5 1012.8 - 0.0 - - - - - - -
29/10:00pm 25.9 NW 3 6 1012.5 - 0.0 - - - - - - -
29/09:30pm 22.4 CALM 0 0 1012.1 - 0.0 - - - - - - -
29/09:00pm 22.6 CALM 0 0 1011.9 - 0.0 - - - - - - -
29/08:30pm 23.3 CALM 0 2 1011.3 - 0.0 - - - - - - -
29/08:00pm 23.5 CALM 0 0 1010.9 - 0.0 - - - - - - -
29/07:30pm 24.1 CALM 0 0 1010.4 - 0.0 - - - - - - -
29/07:00pm 27.1 NNE 1 3 1010.0 - 0.0 - - - - - - -
29/06:30pm 29.0 NE 3 6 1009.7 - 0.0 - - - - - - -
29/06:00pm 30.4 NE 5 9 1009.5 - 0.0 - - - - - - -
29/05:30pm 31.2 NNE 6 11 1009.3 - 0.0 - - - - - - -
29/05:00pm 31.8 ENE 7 12 1009.2 - 0.0 - - - - - - -
29/04:30pm 32.4 NE 7 12 1009.3 - 0.0 - - - - - - -
29/04:00pm 32.6 NNE 7 13 1009.4 - 0.0 - - - - - - -
29/03:30pm 33.1 NE 8 16 1009.7 - 0.0 - - - - - - -
29/03:00pm 33.2 NE 8 14 1009.9 - 0.0 - - - - - - -
29/02:30pm 33.6 NE 7 13 1010.2 - 0.0 - - - - - - -
29/02:00pm 33.3 NE 7 13 1010.8 - 0.0 - - - - - - -
29/01:30pm 32.6 NE 7 12 1011.3 - 0.0 - - - - - - -
29/01:00pm 32.1 NE 5 13 1011.9 - 0.0 - - - - - - -
29/12:30pm 32.7 NNE 7 13 1012.4 - 0.0 - - - - - - -
29/12:00pm 32.1 ENE 5 10 1012.8 - 0.0 - - - - - - -
29/11:30am 32.0 ENE 6 11 1013.4 - 0.0 - - - - - - -
29/11:00am 30.6 NE 5 9 1013.6 - 0.0 - - - - - - -
29/10:30am 30.8 ENE 5 11 1013.8 - 0.0 - - - - - - -
29/10:00am 30.4 NNE 3 7 1013.7 - 0.0 - - - - - - -
29/09:30am 29.1 NE 4 8 1013.8 - 0.0 - - - - - - -
29/09:00am 28.7 N 5 7 1013.8 - 0.0 - - - - - - -
29/08:30am 27.3 NNE 3 5 1013.3 - 0.0 - - - - - - -
29/08:00am 25.1 N 1 3 1013.3 - 0.0 - - - - - - -

Other Formats:

Comma delimited format used in spreadsheet applications
http://www.bom.gov.au/fwo/IDD60701/IDD60701.99501.axf

JavaScript Object Notation format (JSON) in row-major order
http://www.bom.gov.au/fwo/IDD60701/IDD60701.99501.json